createdAt,value
2022-11-25T00:03:04.109Z,6.83
2022-11-25T00:08:05.865Z,8.56
2022-11-25T00:13:07.534Z,7.94
2022-11-25T00:18:09.114Z,8.96
2022-11-25T00:23:11.762Z,8.84
2022-11-25T00:28:13.564Z,8.43
2022-11-25T00:33:15.262Z,8.86
2022-11-25T00:38:16.849Z,8.96
2022-11-25T00:43:38.003Z,8.81
2022-11-25T00:48:39.655Z,9.74
2022-11-25T00:53:41.322Z,8.82
2022-11-25T00:58:44.370Z,9.47
2022-11-25T01:03:49.296Z,8.60
2022-11-25T01:08:51.449Z,7.72
2022-11-25T01:13:59.497Z,8.43
2022-11-25T01:19:04.793Z,7.52
2022-11-25T01:24:07.358Z,7.84
2022-11-25T01:29:15.178Z,9.85
2022-11-25T01:34:19.971Z,8.64
2022-11-25T01:39:28.624Z,9.09
2022-11-25T01:44:33.271Z,9.99
2022-11-25T01:49:41.200Z,9.38
2022-11-25T01:54:57.162Z,8.16
2022-11-25T02:00:01.770Z,9.03
2022-11-25T02:05:08.903Z,7.77
2022-11-25T02:10:14.810Z,7.96
2022-11-25T02:15:17.101Z,6.59
2022-11-25T02:20:21.687Z,7.81
2022-11-25T02:25:24.850Z,8.95
2022-11-25T02:30:26.439Z,8.58
2022-11-25T02:35:37.083Z,7.86
2022-11-25T02:41:22.616Z,7.86
2022-11-25T02:46:26.216Z,8.14
2022-11-25T02:51:30.620Z,9.08
2022-11-25T02:56:35.611Z,9.29
2022-11-25T03:01:38.455Z,9.31
2022-11-25T03:06:40.309Z,8.66
2022-11-25T03:12:00.468Z,7.94
2022-11-25T03:17:02.155Z,8.06
2022-11-25T03:22:04.251Z,8.18
2022-11-25T03:27:05.877Z,8.31
2022-11-25T03:32:09.718Z,9.11
2022-11-25T03:37:11.615Z,10.60
2022-11-25T03:42:13.227Z,8.96
2022-11-25T03:47:14.958Z,8.77
2022-11-25T03:52:16.666Z,9.71
2022-11-25T03:57:18.373Z,8.14
2022-11-25T04:02:19.988Z,9.67
2022-11-25T04:07:21.644Z,8.70
2022-11-25T04:12:41.883Z,10.00
2022-11-25T04:17:43.744Z,8.41
2022-11-25T04:22:45.317Z,8.94
2022-11-25T04:27:46.945Z,8.94
2022-11-25T04:32:48.654Z,10.07
2022-11-25T04:37:50.305Z,9.04
2022-11-25T04:42:54.974Z,7.76
2022-11-25T04:48:01.531Z,9.08
2022-11-25T04:53:03.295Z,8.88
2022-11-25T04:58:05.012Z,5.38
2022-11-25T05:03:07.050Z,7.04
2022-11-25T05:08:08.601Z,6.17
2022-11-25T05:13:10.223Z,8.61
2022-11-25T05:18:11.988Z,6.89
2022-11-25T05:23:13.682Z,7.67
2022-11-25T05:28:15.350Z,7.65
2022-11-25T05:33:16.994Z,6.88
2022-11-25T05:38:18.833Z,8.93
2022-11-25T05:43:20.606Z,8.58
2022-11-25T05:48:22.358Z,8.50
2022-11-25T05:53:23.955Z,9.21
2022-11-25T05:58:26.039Z,9.25
2022-11-25T06:03:29.164Z,8.74
2022-11-25T06:08:31.621Z,9.61
2022-11-25T06:13:33.466Z,8.24
2022-11-25T06:18:36.470Z,7.52
2022-11-25T06:23:39.397Z,8.09
2022-11-25T06:28:41.127Z,7.33
2022-11-25T06:33:42.803Z,6.65
2022-11-25T06:38:49.841Z,8.66
2022-11-25T06:43:51.535Z,7.16
2022-11-25T06:48:53.963Z,7.36
2022-11-25T06:53:55.530Z,6.77
2022-11-25T06:58:57.086Z,8.81
2022-11-25T07:04:03.331Z,7.75
2022-11-25T07:09:05.899Z,6.30
2022-11-25T07:14:11.537Z,5.46
2022-11-25T07:19:15.954Z,5.47
2022-11-25T07:24:18.508Z,6.78
2022-11-25T07:29:50.444Z,7.94
2022-11-25T07:34:42.345Z,9.89
2022-11-25T07:39:44.007Z,9.34
2022-11-25T07:44:45.692Z,10.07
2022-11-25T07:49:47.288Z,8.11
2022-11-25T07:54:48.828Z,7.22
2022-11-25T07:59:50.466Z,6.62
2022-11-25T08:04:52.094Z,7.20
2022-11-25T08:09:53.662Z,7.40
2022-11-25T08:14:56.467Z,5.85
2022-11-25T08:19:58.043Z,6.88
2022-11-25T08:24:59.703Z,8.76
2022-11-25T08:30:01.411Z,9.09
2022-11-25T08:35:03.087Z,8.95
2022-11-25T08:40:05.267Z,8.67
2022-11-25T08:45:08.587Z,8.81
2022-11-25T08:50:10.972Z,8.85
2022-11-25T08:55:12.619Z,9.51
2022-11-25T09:00:14.931Z,9.59
2022-11-25T09:05:17.311Z,6.60
2022-11-25T09:10:19.975Z,6.69
2022-11-25T09:15:21.724Z,8.49
2022-11-25T09:20:23.390Z,7.70
2022-11-25T09:25:24.955Z,8.24
2022-11-25T09:30:26.874Z,7.41
2022-11-25T09:35:29.754Z,9.21
2022-11-25T09:40:58.986Z,8.72
2022-11-25T09:46:38.347Z,9.44
2022-11-25T09:52:02.759Z,9.74
2022-11-25T09:57:29.565Z,9.53
2022-11-25T10:03:08.304Z,9.57
2022-11-25T10:08:19.003Z,9.92
2022-11-25T10:13:32.228Z,9.65
2022-11-25T10:18:42.568Z,10.74
2022-11-25T10:23:44.195Z,9.73
2022-11-25T10:28:56.890Z,10.08
2022-11-25T10:33:59.611Z,9.16
2022-11-25T10:39:27.024Z,9.90
2022-11-25T10:44:28.741Z,10.27
2022-11-25T10:49:45.438Z,10.30
2022-11-25T10:55:16.438Z,11.10
2022-11-25T11:06:36.529Z,7.24
2022-11-25T11:11:48.643Z,6.47
2022-11-25T11:16:55.727Z,7.25
2022-11-25T11:22:14.628Z,7.25
2022-11-25T11:27:25.420Z,7.71
2022-11-25T11:32:29.284Z,5.79
2022-11-25T11:37:33.964Z,6.91
2022-11-25T11:42:44.240Z,7.91
2022-11-25T11:48:23.582Z,7.33
2022-11-25T11:53:31.174Z,8.01
2022-11-25T11:58:51.093Z,7.76
2022-11-25T12:04:14.913Z,7.13
2022-11-25T12:09:23.252Z,8.01
2022-11-25T12:14:42.790Z,9.36
2022-11-25T12:19:55.106Z,8.23
2022-11-25T12:25:15.579Z,8.25
2022-11-25T12:30:22.822Z,7.84
2022-11-25T12:35:57.300Z,7.64
2022-11-25T12:41:23.451Z,9.51
2022-11-25T12:46:49.700Z,8.87
2022-11-25T12:52:03.927Z,7.91
2022-11-25T12:57:11.360Z,9.08
2022-11-25T13:02:28.012Z,7.98
2022-11-25T13:08:03.752Z,7.99
2022-11-25T13:13:28.619Z,9.43
2022-11-25T13:18:33.511Z,9.66
2022-11-25T13:23:52.930Z,8.52
2022-11-25T13:28:55.388Z,8.48
2022-11-25T13:33:59.850Z,8.55
2022-11-25T13:39:05.570Z,8.54
2022-11-25T13:44:44.311Z,8.89
2022-11-25T13:50:00.663Z,7.94
2022-11-25T13:55:10.091Z,7.96
2022-11-25T14:00:14.763Z,9.42
2022-11-25T14:05:34.643Z,8.89
2022-11-25T14:10:50.673Z,10.24
2022-11-25T14:16:06.520Z,9.69
2022-11-25T14:21:37.806Z,10.22
2022-11-25T14:26:50.239Z,9.87
2022-11-25T14:31:58.047Z,10.05
2022-11-25T14:37:08.184Z,10.12
2022-11-25T14:42:13.848Z,8.75
2022-11-25T14:47:23.140Z,9.88
2022-11-25T14:52:26.517Z,10.36
2022-11-25T14:57:41.751Z,10.15
2022-11-25T15:02:58.495Z,10.03
2022-11-25T15:08:14.934Z,12.33
2022-11-25T15:13:42.308Z,12.65
2022-11-25T15:18:50.084Z,9.71
2022-11-25T15:23:51.855Z,8.90
2022-11-25T15:28:58.552Z,9.88
2022-11-25T15:34:03.760Z,11.32
2022-11-25T15:39:20.591Z,10.32
2022-11-25T15:44:33.603Z,11.34
2022-11-25T15:49:36.254Z,11.25
2022-11-25T15:54:51.231Z,10.13
2022-11-25T15:59:55.826Z,10.79
2022-11-25T16:05:12.786Z,11.28
2022-11-25T16:10:41.887Z,10.08
2022-11-25T16:16:03.747Z,11.17
2022-11-25T16:21:09.871Z,11.82
2022-11-25T16:26:14.726Z,10.56
2022-11-25T16:31:17.573Z,11.10
2022-11-25T16:36:19.422Z,10.21
2022-11-25T16:41:25.725Z,11.71
2022-11-25T16:46:28.127Z,10.68
2022-11-25T16:51:30.906Z,11.87
2022-11-25T16:56:36.329Z,11.18
2022-11-25T17:01:38.052Z,10.56
2022-11-25T17:06:41.378Z,10.63
2022-11-25T17:11:54.552Z,10.76
2022-11-25T17:16:56.319Z,10.78
2022-11-25T17:21:58.095Z,10.65
2022-11-25T17:27:05.067Z,11.48
2022-11-25T17:32:07.198Z,11.07
2022-11-25T17:37:20.894Z,11.15
2022-11-25T17:42:31.712Z,10.21
2022-11-25T17:47:33.419Z,11.28
2022-11-25T17:52:35.014Z,10.02
2022-11-25T17:57:36.988Z,10.38
2022-11-25T18:02:38.811Z,10.38
2022-11-25T18:07:44.002Z,10.05
2022-11-25T18:12:47.981Z,10.27
2022-11-25T18:17:51.515Z,10.36
2022-11-25T18:22:53.659Z,9.80
2022-11-25T18:27:57.766Z,9.85
2022-11-25T18:33:01.515Z,10.21
2022-11-25T18:38:04.646Z,10.55
2022-11-25T18:43:12.059Z,10.70
2022-11-25T18:48:20.794Z,9.70
2022-11-25T18:53:23.524Z,8.97
2022-11-25T18:58:29.637Z,9.67
2022-11-25T19:03:32.289Z,10.07
2022-11-25T19:08:33.958Z,10.00
2022-11-25T19:13:36.740Z,9.67
2022-11-25T19:18:39.621Z,9.71
2022-11-25T19:23:42.007Z,9.91
2022-11-25T19:28:47.474Z,10.05
2022-11-25T19:33:51.299Z,9.78
2022-11-25T19:38:54.125Z,9.42
2022-11-25T19:43:55.840Z,9.61
2022-11-25T19:49:01.332Z,8.63
2022-11-25T19:54:03.032Z,8.06
2022-11-25T19:59:04.761Z,8.36
2022-11-25T20:04:08.209Z,7.96
2022-11-25T20:09:13.462Z,8.61
2022-11-25T20:14:15.213Z,9.75
2022-11-25T20:19:18.239Z,9.05
2022-11-25T20:24:20.821Z,8.74
2022-11-25T20:29:28.895Z,9.67
2022-11-25T20:34:37.372Z,9.52
2022-11-25T20:39:44.877Z,9.36
2022-11-25T20:44:47.315Z,8.88
2022-11-25T20:49:48.968Z,9.05
2022-11-25T20:54:50.739Z,8.60
2022-11-25T20:59:52.527Z,8.80
2022-11-25T21:04:54.163Z,8.10
2022-11-25T21:09:55.875Z,8.37
2022-11-25T21:14:57.631Z,7.32
2022-11-25T21:19:59.293Z,8.60
2022-11-25T21:25:01.454Z,9.24
2022-11-25T21:30:03.790Z,9.24
2022-11-25T21:35:05.877Z,7.91
2022-11-25T21:40:24.101Z,8.28
2022-11-25T21:45:25.811Z,6.94
2022-11-25T21:50:29.971Z,7.84
2022-11-25T21:55:33.663Z,8.47
2022-11-25T22:00:35.441Z,7.23
2022-11-25T22:05:37.209Z,6.78
2022-11-25T22:10:41.597Z,6.90
2022-11-25T22:15:44.412Z,6.90
2022-11-25T22:20:50.618Z,8.50
2022-11-25T22:25:55.564Z,8.68
2022-11-25T22:31:08.164Z,6.56
2022-11-25T22:36:32.702Z,7.04
2022-11-25T22:41:34.552Z,7.50
2022-11-25T22:46:37.945Z,7.47
2022-11-25T22:51:39.796Z,8.60
2022-11-25T22:56:41.611Z,8.34
2022-11-25T23:01:44.513Z,8.20
2022-11-25T23:06:47.358Z,8.59
2022-11-25T23:11:49.168Z,9.03
2022-11-25T23:16:50.878Z,7.19
2022-11-25T23:21:52.992Z,6.83
2022-11-25T23:26:55.372Z,8.46
2022-11-25T23:31:59.180Z,8.09
2022-11-25T23:37:01.462Z,7.80
2022-11-25T23:42:03.239Z,8.83
2022-11-25T23:47:10.746Z,9.29
2022-11-25T23:52:21.528Z,9.01
2022-11-25T23:57:33.388Z,9.91
